createdAt,value
2023-03-20T00:00:24.544Z,83.70
2023-03-20T00:03:20.644Z,78.70
2023-03-20T00:06:02.225Z,82.30
2023-03-20T00:08:58.196Z,80.00
2023-03-20T00:11:53.372Z,77.50
2023-03-20T00:14:27.388Z,80.30
2023-03-20T00:17:00.745Z,80.10
2023-03-20T00:19:33.923Z,78.90
2023-03-20T00:22:10.814Z,81.20
2023-03-20T00:24:44.618Z,81.00
2023-03-20T00:27:19.310Z,83.60
2023-03-20T00:29:53.044Z,81.60
2023-03-20T00:32:46.362Z,83.30
2023-03-20T00:35:28.025Z,82.60
2023-03-20T00:38:01.163Z,83.80
2023-03-20T00:40:38.526Z,84.30
2023-03-20T00:43:29.148Z,82.50
2023-03-20T00:46:02.680Z,81.20
2023-03-20T00:48:46.791Z,81.90
2023-03-20T00:51:26.259Z,56.30
2023-03-20T00:53:58.462Z,65.80
2023-03-20T00:56:36.333Z,73.60
2023-03-20T00:59:11.119Z,77.10
2023-03-20T01:01:43.807Z,77.10
2023-03-20T01:06:49.821Z,78.70
2023-03-20T01:09:21.818Z,76.00
2023-03-20T01:11:54.424Z,77.80
2023-03-20T01:14:27.842Z,75.90
2023-03-20T01:17:01.372Z,77.20
2023-03-20T01:19:34.537Z,78.80
2023-03-20T01:22:07.907Z,77.40
2023-03-20T01:27:17.433Z,76.90
2023-03-20T01:29:53.363Z,78.50
2023-03-20T01:32:25.466Z,77.60
2023-03-20T01:34:58.162Z,82.20
2023-03-20T01:37:31.223Z,78.70
2023-03-20T01:40:13.876Z,78.00
2023-03-20T01:42:45.895Z,81.20
2023-03-20T01:45:23.884Z,81.90
2023-03-20T01:47:59.260Z,80.50
2023-03-20T01:50:34.920Z,81.40
2023-03-20T01:53:16.528Z,77.60
2023-03-20T01:55:57.009Z,74.40
2023-03-20T01:58:37.511Z,76.30
2023-03-20T02:01:13.795Z,71.50
2023-03-20T02:03:51.929Z,67.00
2023-03-20T02:06:45.997Z,64.60
2023-03-20T02:09:21.815Z,66.10
2023-03-20T02:11:55.954Z,68.20
2023-03-20T02:14:30.124Z,69.00
2023-03-20T02:17:10.935Z,69.80
2023-03-20T02:19:59.557Z,68.10
2023-03-20T02:22:52.159Z,67.70
2023-03-20T02:26:01.098Z,68.00
2023-03-20T02:28:58.777Z,70.40
2023-03-20T02:32:01.628Z,69.50
2023-03-20T02:34:57.729Z,68.90
2023-03-20T02:38:06.338Z,66.70
2023-03-20T02:40:49.626Z,63.60
2023-03-20T02:43:27.527Z,65.40
2023-03-20T02:46:09.006Z,66.70
2023-03-20T02:48:58.514Z,65.00
2023-03-20T02:51:38.730Z,62.20
2023-03-20T02:54:20.301Z,56.00
2023-03-20T02:57:04.203Z,48.00
2023-03-20T02:59:48.552Z,69.50
2023-03-20T03:02:26.227Z,74.30
2023-03-20T03:05:03.293Z,72.40
2023-03-20T03:07:39.469Z,71.00
2023-03-20T03:10:18.832Z,69.80
2023-03-20T03:12:54.138Z,70.30
2023-03-20T03:15:33.583Z,67.30
2023-03-20T03:18:09.367Z,66.40
2023-03-20T03:20:44.506Z,69.50
2023-03-20T03:23:28.343Z,65.60
2023-03-20T03:26:03.899Z,64.50
2023-03-20T03:28:42.533Z,65.40
2023-03-20T03:31:18.918Z,65.70
2023-03-20T03:33:54.497Z,66.00
2023-03-20T03:36:37.869Z,68.10
2023-03-20T03:39:22.415Z,68.70
2023-03-20T03:41:58.770Z,66.10
2023-03-20T03:44:42.049Z,59.20
2023-03-20T03:47:17.882Z,50.90
2023-03-20T03:49:55.951Z,52.80
2023-03-20T03:52:32.969Z,59.00
2023-03-20T03:55:11.114Z,58.70
2023-03-20T03:58:14.909Z,61.10
2023-03-20T04:00:52.023Z,62.30
2023-03-20T04:03:29.938Z,61.90
2023-03-20T04:06:04.233Z,64.60
2023-03-20T04:08:40.636Z,65.70
2023-03-20T04:11:19.537Z,66.10
2023-03-20T04:13:54.351Z,64.60
2023-03-20T04:16:28.789Z,66.00
2023-03-20T04:19:01.281Z,68.30
2023-03-20T04:21:36.659Z,64.30
2023-03-20T04:24:15.368Z,64.60
2023-03-20T04:26:48.621Z,64.00
2023-03-20T04:29:21.258Z,65.30
2023-03-20T04:32:15.495Z,60.50
2023-03-20T04:35:10.056Z,62.30
2023-03-20T04:37:52.632Z,63.90
2023-03-20T04:40:33.360Z,59.70
2023-03-20T04:43:05.873Z,55.10
2023-03-20T04:45:38.532Z,51.10
2023-03-20T04:48:13.772Z,46.80
2023-03-20T04:50:48.559Z,46.20
2023-03-20T04:53:22.293Z,51.80
2023-03-20T04:55:56.782Z,51.10
2023-03-20T04:58:30.038Z,38.90
2023-03-20T05:01:23.681Z,48.70
2023-03-20T05:04:01.004Z,48.40
2023-03-20T05:06:48.337Z,50.80
2023-03-20T05:09:22.065Z,48.10
2023-03-20T05:11:56.049Z,50.00
2023-03-20T05:14:46.793Z,49.30
2023-03-20T05:17:46.094Z,49.80
2023-03-20T05:20:39.074Z,49.00
2023-03-20T05:23:19.821Z,51.10
2023-03-20T05:26:09.338Z,51.00
2023-03-20T05:29:06.605Z,50.20
2023-03-20T05:31:55.421Z,51.40
2023-03-20T05:34:51.147Z,49.20
2023-03-20T05:37:28.908Z,50.40
2023-03-20T05:40:24.206Z,50.20
2023-03-20T05:43:19.100Z,46.70
2023-03-20T05:46:09.617Z,49.00
2023-03-20T05:49:05.681Z,51.10
2023-03-20T05:52:27.846Z,50.60
2023-03-20T05:55:33.284Z,46.90
2023-03-20T05:58:38.785Z,47.50
2023-03-20T06:01:32.920Z,47.40
2023-03-20T06:04:24.993Z,47.10
2023-03-20T06:07:35.858Z,45.50
2023-03-20T06:10:17.021Z,46.10
2023-03-20T06:13:10.804Z,45.30
2023-03-20T06:16:03.806Z,46.90
2023-03-20T06:18:35.882Z,46.20
2023-03-20T06:21:13.045Z,48.20
2023-03-20T06:23:45.737Z,46.40
2023-03-20T06:28:57.543Z,47.00
2023-03-20T06:31:30.545Z,46.30
2023-03-20T06:34:03.350Z,46.70
2023-03-20T06:36:38.028Z,48.50
2023-03-20T06:39:14.492Z,45.20
2023-03-20T06:41:46.559Z,48.00
2023-03-20T06:44:18.414Z,36.20
2023-03-20T06:47:10.370Z,48.00
2023-03-20T06:52:18.342Z,46.10
2023-03-20T06:54:56.240Z,48.90
2023-03-20T06:57:28.068Z,50.00
2023-03-20T06:59:59.964Z,49.80
2023-03-20T07:02:34.961Z,49.40
2023-03-20T07:05:08.457Z,47.20
2023-03-20T07:07:40.743Z,49.70
2023-03-20T07:10:14.059Z,47.30
2023-03-20T07:12:48.513Z,48.90
2023-03-20T07:17:51.243Z,46.30
2023-03-20T07:20:23.423Z,33.10
2023-03-20T07:22:55.592Z,45.10
2023-03-20T07:25:41.932Z,48.60
2023-03-20T07:28:16.525Z,47.70
2023-03-20T07:30:51.639Z,47.20
2023-03-20T07:33:23.613Z,49.20
2023-03-20T07:35:56.403Z,49.50
2023-03-20T07:41:09.887Z,46.40
2023-03-20T07:43:44.834Z,47.30
2023-03-20T07:46:37.250Z,47.80
2023-03-20T07:49:09.600Z,50.10
2023-03-20T07:51:41.604Z,49.70
2023-03-20T07:54:13.637Z,34.50
2023-03-20T07:56:45.421Z,50.80
2023-03-20T07:59:17.534Z,34.60
2023-03-20T08:01:49.472Z,45.60
2023-03-20T08:04:23.160Z,47.20
2023-03-20T08:06:55.386Z,46.10
2023-03-20T08:09:27.738Z,47.10
2023-03-20T08:11:59.675Z,48.20
2023-03-20T08:14:31.610Z,47.00
2023-03-20T08:17:14.471Z,46.40
2023-03-20T08:19:47.460Z,45.40
2023-03-20T08:22:21.016Z,41.90
2023-03-20T08:24:52.799Z,43.60
2023-03-20T08:27:24.960Z,31.70
2023-03-20T08:29:56.703Z,43.90
2023-03-20T08:32:28.986Z,43.10
2023-03-20T08:35:00.859Z,44.50
2023-03-20T08:37:32.701Z,34.10
2023-03-20T08:40:06.152Z,31.00
2023-03-20T08:42:38.089Z,43.00
2023-03-20T08:45:12.184Z,45.20
2023-03-20T08:47:48.363Z,42.80
2023-03-20T08:50:20.685Z,44.50
2023-03-20T08:52:52.680Z,44.80
2023-03-20T08:55:24.785Z,43.60
2023-03-20T08:57:57.400Z,41.80
2023-03-20T09:00:29.317Z,43.70
2023-03-20T09:03:01.459Z,42.90
2023-03-20T09:05:34.372Z,36.10
2023-03-20T09:08:07.072Z,40.90
2023-03-20T09:10:38.987Z,42.10
2023-03-20T09:13:26.701Z,42.30
2023-03-20T09:16:00.328Z,40.60
2023-03-20T09:18:32.369Z,40.80
2023-03-20T09:21:04.648Z,37.30
2023-03-20T09:23:36.536Z,36.10
2023-03-20T09:26:09.014Z,35.20
2023-03-20T09:28:41.114Z,31.70
2023-03-20T09:31:13.417Z,22.00
2023-03-20T09:33:45.191Z,29.40
2023-03-20T09:36:17.009Z,28.30
2023-03-20T09:38:48.824Z,27.90
2023-03-20T09:41:23.191Z,29.80
2023-03-20T09:44:08.960Z,27.80
2023-03-20T09:47:12.501Z,27.10
2023-03-20T09:50:05.908Z,27.50
2023-03-20T09:52:42.122Z,26.20
2023-03-20T09:55:18.151Z,27.70
2023-03-20T09:57:54.857Z,24.90
2023-03-20T10:00:29.837Z,25.90
2023-03-20T10:03:04.707Z,25.60
2023-03-20T10:05:43.772Z,25.00
2023-03-20T10:08:20.100Z,25.20
2023-03-20T10:10:58.818Z,23.70
2023-03-20T10:13:57.016Z,24.50
2023-03-20T10:16:43.505Z,22.70
2023-03-20T10:19:23.692Z,22.70
2023-03-20T10:22:02.732Z,23.30
2023-03-20T10:24:40.021Z,23.50
2023-03-20T10:27:19.297Z,22.10
2023-03-20T10:30:01.431Z,22.80
2023-03-20T10:32:41.793Z,17.40
2023-03-20T10:35:23.046Z,24.50
2023-03-20T10:38:12.271Z,23.60
2023-03-20T10:40:45.169Z,23.60
2023-03-20T10:43:23.440Z,22.40
2023-03-20T10:46:01.160Z,22.90
2023-03-20T10:48:38.423Z,23.50
2023-03-20T10:51:16.147Z,23.80
2023-03-20T10:53:50.866Z,23.30
2023-03-20T10:56:32.035Z,21.30
2023-03-20T10:59:08.694Z,21.60
2023-03-20T11:01:41.572Z,20.90
2023-03-20T11:04:13.415Z,22.10
2023-03-20T11:06:51.502Z,20.20
2023-03-20T11:09:29.766Z,21.90
2023-03-20T11:12:05.632Z,21.50
2023-03-20T11:14:40.575Z,22.20
2023-03-20T11:17:13.395Z,22.50
2023-03-20T11:19:45.262Z,21.40
2023-03-20T11:22:26.647Z,21.70
2023-03-20T11:25:02.548Z,20.70
2023-03-20T11:27:35.969Z,19.90
2023-03-20T11:30:17.550Z,20.30
2023-03-20T11:32:52.257Z,20.50
2023-03-20T11:35:31.008Z,20.00
2023-03-20T11:38:15.400Z,21.50
2023-03-20T11:40:49.800Z,20.60
2023-03-20T11:43:23.748Z,22.80
2023-03-20T11:46:00.303Z,20.90
2023-03-20T11:48:40.290Z,22.00
2023-03-20T11:51:16.017Z,21.70
2023-03-20T11:54:02.475Z,20.70
2023-03-20T11:56:35.915Z,18.60
2023-03-20T11:59:18.081Z,18.30
2023-03-20T12:01:51.633Z,17.70
2023-03-20T12:04:30.555Z,17.80
2023-03-20T12:07:06.801Z,16.60
2023-03-20T12:09:44.936Z,16.70
2023-03-20T12:12:26.154Z,14.90
2023-03-20T12:15:04.695Z,14.70
2023-03-20T12:17:47.105Z,12.90
2023-03-20T12:20:28.913Z,12.40
2023-03-20T12:23:08.035Z,12.60
2023-03-20T12:25:46.201Z,12.30
2023-03-20T12:28:26.166Z,11.70
2023-03-20T12:31:07.276Z,11.70
2023-03-20T12:33:47.058Z,11.00
2023-03-20T12:36:22.487Z,11.60
2023-03-20T12:38:54.403Z,11.90
2023-03-20T12:41:30.619Z,11.10
2023-03-20T12:44:29.163Z,11.10
2023-03-20T12:47:12.508Z,11.60
2023-03-20T12:49:55.839Z,10.90
2023-03-20T12:52:38.463Z,11.00
2023-03-20T12:55:26.868Z,11.70
2023-03-20T12:58:07.323Z,10.60
2023-03-20T13:00:49.705Z,12.10
2023-03-20T13:03:36.009Z,11.00
2023-03-20T13:06:15.315Z,11.20
2023-03-20T13:09:14.863Z,10.30
2023-03-20T13:11:52.924Z,10.30
2023-03-20T13:14:30.911Z,9.20
2023-03-20T13:17:10.630Z,8.80
2023-03-20T13:19:49.191Z,9.10
2023-03-20T13:22:32.087Z,8.40
2023-03-20T13:25:14.478Z,9.20
2023-03-20T13:27:53.743Z,9.70
2023-03-20T13:30:34.560Z,9.80
2023-03-20T13:33:19.370Z,10.60
2023-03-20T13:35:58.582Z,10.10
2023-03-20T13:38:36.163Z,10.60
2023-03-20T13:41:11.232Z,11.70
2023-03-20T13:43:48.968Z,11.90
2023-03-20T13:46:25.288Z,12.10
2023-03-20T13:49:04.602Z,12.60
2023-03-20T13:51:40.646Z,12.70
2023-03-20T13:54:29.965Z,11.40
2023-03-20T13:57:11.903Z,11.60
2023-03-20T13:59:55.158Z,11.10
2023-03-20T14:02:53.618Z,11.00
2023-03-20T14:05:27.776Z,11.80
2023-03-20T14:08:01.157Z,13.10
2023-03-20T14:10:40.771Z,14.40
2023-03-20T14:13:19.485Z,12.70
2023-03-20T14:15:57.903Z,14.70
2023-03-20T14:18:31.162Z,14.60
2023-03-20T14:21:05.532Z,13.10
2023-03-20T14:23:40.498Z,12.90
2023-03-20T14:26:21.433Z,13.60
2023-03-20T14:28:59.797Z,15.00
2023-03-20T14:31:38.172Z,14.30
2023-03-20T14:34:24.681Z,14.60
2023-03-20T14:37:01.846Z,14.10
2023-03-20T14:39:46.489Z,14.90
2023-03-20T14:42:36.536Z,13.70
2023-03-20T14:45:47.435Z,12.60
2023-03-20T14:48:33.367Z,14.10
2023-03-20T14:51:31.008Z,12.90
2023-03-20T14:54:26.513Z,14.60
2023-03-20T14:57:09.379Z,15.60
2023-03-20T15:02:28.149Z,14.90
2023-03-20T15:05:00.128Z,15.00
2023-03-20T15:07:35.415Z,16.00
2023-03-20T15:10:08.617Z,16.50
2023-03-20T15:12:41.466Z,17.30
2023-03-20T15:15:28.394Z,15.80
2023-03-20T15:18:08.686Z,14.90
2023-03-20T15:20:40.785Z,15.80
2023-03-20T15:23:12.939Z,15.20
2023-03-20T15:25:47.535Z,14.30
2023-03-20T15:28:24.281Z,14.40
2023-03-20T15:30:59.803Z,15.20
2023-03-20T15:33:35.808Z,14.00
2023-03-20T15:36:15.931Z,14.50
2023-03-20T15:38:52.316Z,14.00
2023-03-20T15:41:34.184Z,14.00
2023-03-20T15:44:25.094Z,13.70
2023-03-20T15:47:04.934Z,13.40
2023-03-20T15:49:37.863Z,12.00
2023-03-20T15:54:44.689Z,12.50
2023-03-20T15:57:35.556Z,12.60
2023-03-20T16:00:16.923Z,13.10
2023-03-20T16:02:51.680Z,13.10
2023-03-20T16:05:28.960Z,12.90
2023-03-20T16:08:23.230Z,12.40
2023-03-20T16:11:01.383Z,13.70
2023-03-20T16:13:42.014Z,13.40
2023-03-20T16:16:20.064Z,12.90
2023-03-20T16:18:54.932Z,14.30
2023-03-20T16:21:31.379Z,13.50
2023-03-20T16:24:11.455Z,14.50
2023-03-20T16:26:46.451Z,14.40
2023-03-20T16:29:19.621Z,14.20
2023-03-20T16:31:57.678Z,14.60
2023-03-20T16:34:35.492Z,14.90
2023-03-20T16:37:23.563Z,17.20
2023-03-20T16:40:13.545Z,16.00
2023-03-20T16:42:46.492Z,16.50
2023-03-20T16:45:25.704Z,16.40
2023-03-20T16:48:30.931Z,15.10
2023-03-20T16:51:17.572Z,16.10
2023-03-20T16:53:51.146Z,16.10
2023-03-20T16:56:29.190Z,16.10
2023-03-20T16:59:07.398Z,16.40
2023-03-20T17:01:44.794Z,16.00
2023-03-20T17:04:22.307Z,15.00
2023-03-20T17:06:56.870Z,15.70
2023-03-20T17:09:31.653Z,16.60
2023-03-20T17:12:14.275Z,15.30
2023-03-20T17:14:46.753Z,15.40
2023-03-20T17:17:21.020Z,14.70
2023-03-20T17:19:53.273Z,16.10
2023-03-20T17:23:37.668Z,14.80
2023-03-20T17:27:52.674Z,17.10
2023-03-20T17:30:26.468Z,15.80
2023-03-20T17:32:58.470Z,15.40
2023-03-20T17:35:30.737Z,15.70
2023-03-20T17:38:02.825Z,15.70
2023-03-20T17:40:35.585Z,13.10
2023-03-20T17:43:10.337Z,16.30
2023-03-20T17:47:28.757Z,14.70
2023-03-20T17:50:00.701Z,16.40
2023-03-20T17:52:32.769Z,16.60
2023-03-20T17:55:05.526Z,16.70
2023-03-20T18:00:16.424Z,15.60
2023-03-20T18:02:48.649Z,16.00
2023-03-20T18:05:21.413Z,14.30
2023-03-20T18:07:53.803Z,14.80
2023-03-20T18:10:32.016Z,14.00
2023-03-20T18:16:21.151Z,12.70
2023-03-20T18:18:53.750Z,12.00
2023-03-20T18:21:25.673Z,14.30
2023-03-20T18:23:57.919Z,13.80
2023-03-20T18:26:34.570Z,14.00
2023-03-20T18:29:08.699Z,12.60
2023-03-20T18:31:43.804Z,14.20
2023-03-20T18:34:16.584Z,12.80
2023-03-20T18:36:49.393Z,12.30
2023-03-20T18:39:23.119Z,12.30
2023-03-20T18:41:55.030Z,12.20
2023-03-20T18:44:27.320Z,12.20
2023-03-20T18:46:59.283Z,13.80
2023-03-20T18:49:38.598Z,13.60
2023-03-20T18:52:14.135Z,13.80
2023-03-20T18:54:46.422Z,16.30
2023-03-20T18:57:20.262Z,14.80
2023-03-20T18:59:52.197Z,17.00
2023-03-20T19:02:25.272Z,15.90
2023-03-20T19:04:57.563Z,15.90
2023-03-20T19:07:29.453Z,17.40
2023-03-20T19:10:02.789Z,13.40
2023-03-20T19:12:34.759Z,18.00
2023-03-20T19:15:09.700Z,16.20
2023-03-20T19:17:44.009Z,17.40
2023-03-20T19:20:34.116Z,18.40
2023-03-20T19:23:08.647Z,18.40
2023-03-20T19:25:42.728Z,18.50
2023-03-20T19:28:34.492Z,17.40
2023-03-20T19:31:11.189Z,17.70
2023-03-20T19:33:43.049Z,18.00
2023-03-20T19:36:27.122Z,21.80
2023-03-20T19:39:00.728Z,18.10
2023-03-20T19:41:33.258Z,16.20
2023-03-20T19:44:06.496Z,16.60
2023-03-20T19:46:41.154Z,15.70
2023-03-20T19:49:30.171Z,14.60
2023-03-20T19:52:05.305Z,15.00
2023-03-20T19:54:38.858Z,17.90
2023-03-20T19:57:11.059Z,15.20
2023-03-20T19:59:44.008Z,16.80
2023-03-20T20:02:16.607Z,17.70
2023-03-20T20:04:49.112Z,17.90
2023-03-20T20:08:06.310Z,17.10
2023-03-20T20:10:13.821Z,18.30
2023-03-20T20:15:19.222Z,16.20
2023-03-20T20:17:52.134Z,15.80
2023-03-20T20:23:00.010Z,15.20
2023-03-20T20:25:33.713Z,15.00
2023-03-20T20:28:05.836Z,14.20
2023-03-20T20:30:42.749Z,14.20
2023-03-20T20:33:17.185Z,14.70
2023-03-20T20:36:26.950Z,14.00
2023-03-20T20:38:51.174Z,14.50
2023-03-20T20:41:25.086Z,14.10
2023-03-20T20:44:17.106Z,13.90
2023-03-20T20:46:52.910Z,14.00
2023-03-20T20:49:25.970Z,14.60
2023-03-20T20:51:58.853Z,14.80
2023-03-20T20:54:34.160Z,14.00
2023-03-20T20:57:06.407Z,15.60
2023-03-20T20:59:38.565Z,14.00
2023-03-20T21:02:12.639Z,17.20
2023-03-20T21:04:52.711Z,16.30
2023-03-20T21:07:25.821Z,16.30
2023-03-20T21:12:38.098Z,14.90
2023-03-20T21:15:13.818Z,17.00
2023-03-20T21:17:59.384Z,16.20
2023-03-20T21:20:32.772Z,17.40
2023-03-20T21:23:04.980Z,18.10
2023-03-20T21:25:41.153Z,16.20
2023-03-20T21:28:15.670Z,16.60
2023-03-20T21:31:16.218Z,16.70
2023-03-20T21:33:39.851Z,18.40
2023-03-20T21:36:12.665Z,17.20
2023-03-20T21:41:45.342Z,16.00
2023-03-20T21:44:35.899Z,17.20
2023-03-20T21:53:31.921Z,16.70
2023-03-20T21:59:22.903Z,13.20
2023-03-20T22:02:07.802Z,18.30
2023-03-20T22:11:05.023Z,17.80
2023-03-20T22:14:05.967Z,18.30
2023-03-20T22:16:42.883Z,19.10
2023-03-20T22:22:22.970Z,18.70
2023-03-20T22:28:06.343Z,19.70
2023-03-20T22:34:09.231Z,17.20
2023-03-20T22:45:00.078Z,17.60
2023-03-20T22:47:33.155Z,17.90
2023-03-20T22:50:06.427Z,16.90
2023-03-20T22:52:48.671Z,17.80
2023-03-20T22:55:22.527Z,16.60
2023-03-20T22:58:06.345Z,16.30
2023-03-20T23:00:41.509Z,17.50
2023-03-20T23:03:25.741Z,16.20
2023-03-20T23:06:09.048Z,14.60
2023-03-20T23:08:49.326Z,16.00
2023-03-20T23:11:25.959Z,15.60
2023-03-20T23:13:59.560Z,16.10
2023-03-20T23:16:53.370Z,13.00
2023-03-20T23:19:26.644Z,10.30
2023-03-20T23:22:02.966Z,14.20
2023-03-20T23:24:35.836Z,15.10
2023-03-20T23:27:08.697Z,14.40
2023-03-20T23:29:42.270Z,14.10
2023-03-20T23:34:46.172Z,13.60
2023-03-20T23:37:18.847Z,13.70
2023-03-20T23:39:51.964Z,13.80
2023-03-20T23:42:30.567Z,13.90
2023-03-20T23:45:17.051Z,12.50
2023-03-20T23:47:51.537Z,13.90
2023-03-20T23:50:30.331Z,10.30
2023-03-20T23:53:19.904Z,13.70
2023-03-20T23:55:54.512Z,13.40
2023-03-20T23:58:28.672Z,13.10
